Home > Products > Valid Products > TAF

000
FTUS45 KBYZ 251120
TAFMLS
TAF
KMLS 251120Z 2512/2612 VRB05KT P6SM SKC
     FM251500 27014KT P6SM SKC
     FM252100 27014G25KT P6SM SKC
     FM260300 VRB05KT P6SM SKC=



000
FTUS45 KBYZ 251120
TAFBIL
TAF
KBIL 251120Z 2512/2612 VRB06KT P6SM SKC
     FM251500 27010KT P6SM SKC
     FM252200 29015G25KT P6SM SKC
     FM260300 VRB06KT P6SM SKC=



000
FTUS45 KBYZ 251120
TAFSHR
TAF
KSHR 251120Z 2512/2612 VRB05KT P6SM SKC=



000
FTUS45 KBYZ 251120
TAFLVM
TAF
KLVM 251120Z 2512/2612 27009KT P6SM SKC
     FM251800 28015G32KT P6SM SKC
     FM260400 25006KT P6SM SKC=



000
FTUS45 KBYZ 251120
TAFLVM
TAF
KLVM 251120Z 2512/2612 27009KT P6SM SKC
     FM251800 28015G32KT P6SM SKC
     FM260400 25006KT P6SM SKC=



000
FTUS45 KBYZ 251120
TAFMLS
TAF
KMLS 251120Z 2512/2612 VRB05KT P6SM SKC
     FM251500 27014KT P6SM SKC
     FM252100 27014G25KT P6SM SKC
     FM260300 VRB05KT P6SM SKC=



000
FTUS45 KBYZ 251120
TAFSHR
TAF
KSHR 251120Z 2512/2612 VRB05KT P6SM SKC=



000
FTUS45 KBYZ 251120
TAFBIL
TAF
KBIL 251120Z 2512/2612 VRB06KT P6SM SKC
     FM251500 27010KT P6SM SKC
     FM252200 29015G25KT P6SM SKC
     FM260300 VRB06KT P6SM SKC=



000
FTUS45 KBYZ 250523
TAFBIL
TAF
KBIL 250523Z 2506/2606 35010KT P6SM SKC
     FM251400 27010KT P6SM SKC
     FM252200 29015G25KT P6SM SKC
     FM260300 VRB06KT P6SM SKC=



000
FTUS45 KBYZ 250523
TAFMLS
TAF
KMLS 250523Z 2506/2606 VRB06KT P6SM SKC
     FM250900 27008KT P6SM SKC
     FM251500 27014KT P6SM SKC
     FM252100 27014G25KT P6SM SKC
     FM260300 VRB05KT P6SM SKC=



000
FTUS45 KBYZ 250523
TAFSHR
TAF
KSHR 250523Z 2506/2606 30009KT P6SM SKC
     FM250800 VRB05KT P6SM SKC=



000
FTUS45 KBYZ 250523
TAFLVM
TAF
KLVM 250523Z 2506/2606 26006KT P6SM SKC
     FM251800 28015G32KT P6SM SKC
     FM260400 25006KT P6SM SKC=



000
FTUS45 KBYZ 250523
TAFMLS
TAF
KMLS 250523Z 2506/2606 VRB06KT P6SM SKC
     FM250900 27008KT P6SM SKC
     FM251500 27014KT P6SM SKC
     FM252100 27014G25KT P6SM SKC
     FM260300 VRB05KT P6SM SKC=



000
FTUS45 KBYZ 250523
TAFLVM
TAF
KLVM 250523Z 2506/2606 26006KT P6SM SKC
     FM251800 28015G32KT P6SM SKC
     FM260400 25006KT P6SM SKC=



000
FTUS45 KBYZ 250523
TAFBIL
TAF
KBIL 250523Z 2506/2606 35010KT P6SM SKC
     FM251400 27010KT P6SM SKC
     FM252200 29015G25KT P6SM SKC
     FM260300 VRB06KT P6SM SKC=



000
FTUS45 KBYZ 250523
TAFSHR
TAF
KSHR 250523Z 2506/2606 30009KT P6SM SKC
     FM250800 VRB05KT P6SM SKC=



000
FTUS45 KBYZ 250302 AAC
TAFMLS
TAF AMD
KMLS 250302Z 2503/2524 01011KT P6SM SKC
     FM250500 32010KT P6SM SKC
     FM250900 27008KT P6SM SKC
     FM252100 27014G25KT P6SM SKC=



000
FTUS45 KBYZ 250302 AAB
TAFLVM
TAF AMD
KLVM 250302Z 2503/2524 27012KT P6SM SKC
     FM250800 25006KT P6SM SKC
     FM251800 28015G32KT P6SM SKC=



000
FTUS45 KBYZ 250302 AAB
TAFLVM
TAF AMD
KLVM 250302Z 2503/2524 27012KT P6SM SKC
     FM250800 25006KT P6SM SKC
     FM251800 28015G32KT P6SM SKC=



000
FTUS45 KBYZ 250302 AAC
TAFMLS
TAF AMD
KMLS 250302Z 2503/2524 01011KT P6SM SKC
     FM250500 32010KT P6SM SKC
     FM250900 27008KT P6SM SKC
     FM252100 27014G25KT P6SM SKC=



000
FTUS45 KBYZ 250222 AAA
TAFLVM
TAF AMD
KLVM 250222Z 2502/2524 26018G24KT P6SM SKC
     FM250400 27012KT P6SM SKC
     FM250800 25006KT P6SM SKC
     FM251800 28015G32KT P6SM SKC=



000
FTUS45 KBYZ 250222 AAA
TAFLVM
TAF AMD
KLVM 250222Z 2502/2524 26018G24KT P6SM SKC
     FM250400 27012KT P6SM SKC
     FM250800 25006KT P6SM SKC
     FM251800 28015G32KT P6SM SKC=



000
FTUS45 KBYZ 250222 AAB
TAFMLS
TAF AMD
KMLS 250222Z 2502/2524 01019G25KT P6SM SKC
     FM250300 34020G29KT P6SM SKC
     FM250500 32010KT P6SM SKC
     FM250900 27008KT P6SM SKC
     FM252100 27014G25KT P6SM SKC=



000
FTUS45 KBYZ 250222 AAB
TAFMLS
TAF AMD
KMLS 250222Z 2502/2524 01019G25KT P6SM SKC
     FM250300 34020G29KT P6SM SKC
     FM250500 32010KT P6SM SKC
     FM250900 27008KT P6SM SKC
     FM252100 27014G25KT P6SM SKC=



000
FTUS45 KBYZ 250126 AAA
TAFSHR
TAF AMD
KSHR 250126Z 2501/2524 31015G30KT P6SM SKC
     FM250300 35006KT P6SM SKC
     FM250600 VRB05KT P6SM SKC
     FM252100 32010G22KT P6SM SKC=



000
FTUS45 KBYZ 250126 AAA
TAFSHR
TAF AMD
KSHR 250126Z 2501/2524 31015G30KT P6SM SKC
     FM250300 35006KT P6SM SKC
     FM250600 VRB05KT P6SM SKC
     FM252100 32010G22KT P6SM SKC=



000
FTUS45 KBYZ 250124 AAA
TAFMLS
TAF AMD
KMLS 250124Z 2501/2524 34035G44KT P6SM VCTS FEW015CB
     FM250300 34020G29KT P6SM SKC
     FM250500 32010KT P6SM SKC
     FM250900 27008KT P6SM SKC
     FM252100 27014G25KT P6SM SKC=



000
FTUS45 KBYZ 250124 AAA
TAFMLS
TAF AMD
KMLS 250124Z 2501/2524 34035G44KT P6SM VCTS FEW015CB
     FM250300 34020G29KT P6SM SKC
     FM250500 32010KT P6SM SKC
     FM250900 27008KT P6SM SKC
     FM252100 27014G25KT P6SM SKC=



000
FTUS45 KBYZ 250122 AAA
TAFBIL
TAF AMD
KBIL 250122Z 2501/2524 34018G27KT P6SM SKC
     FM250300 33010KT P6SM SKC
     FM250800 26010KT P6SM SKC
     FM252100 29015G25KT P6SM SKC=



000
FTUS45 KBYZ 242320
TAFMLS
TAF
KMLS 242320Z 2500/2524 31020G35KT P6SM VCTS SCT150CB
     FM250300 34020G29KT P6SM SCT120
     FM250500 32010KT P6SM SKC
     FM250900 27008KT P6SM SKC
     FM252100 27014G25KT P6SM SKC=



000
FTUS45 KBYZ 242320
TAFLVM
TAF
KLVM 242320Z 2500/2524 28021G28KT P6SM SKC
     FM250200 30012KT P6SM SKC
     FM250800 25006KT P6SM SKC
     FM251800 28015G32KT P6SM SKC=



000
FTUS45 KBYZ 242320
TAFBIL
TAF
KBIL 242320Z 2500/2524 31022G33KT P6SM VCTS FEW090CB SCT120
     FM250130 33010KT P6SM SKC
     FM250800 26010KT P6SM SKC
     FM252100 29015G25KT P6SM SKC=



000
FTUS45 KBYZ 242320
TAFSHR
TAF
KSHR 242320Z 2500/2524 29015G30KT P6SM BKN150
     FM250200 35006KT P6SM SKC
     FM250600 VRB05KT P6SM SKC
     FM252100 32010G22KT P6SM SKC=



000
FTUS45 KBYZ 242320
TAFBIL
TAF
KBIL 242320Z 2500/2524 31022G33KT P6SM VCTS FEW090CB SCT120
     FM250130 33010KT P6SM SKC
     FM250800 26010KT P6SM SKC
     FM252100 29015G25KT P6SM SKC=



000
FTUS45 KBYZ 242320
TAFMLS
TAF
KMLS 242320Z 2500/2524 31020G35KT P6SM VCTS SCT150CB
     FM250300 34020G29KT P6SM SCT120
     FM250500 32010KT P6SM SKC
     FM250900 27008KT P6SM SKC
     FM252100 27014G25KT P6SM SKC=



000
FTUS45 KBYZ 242320
TAFLVM
TAF
KLVM 242320Z 2500/2524 28021G28KT P6SM SKC
     FM250200 30012KT P6SM SKC
     FM250800 25006KT P6SM SKC
     FM251800 28015G32KT P6SM SKC=



000
FTUS45 KBYZ 242320
TAFSHR
TAF
KSHR 242320Z 2500/2524 29015G30KT P6SM BKN150
     FM250200 35006KT P6SM SKC
     FM250600 VRB05KT P6SM SKC
     FM252100 32010G22KT P6SM SKC=



000
FTUS45 KBYZ 242118 AAA
TAFLVM
TAF AMD
KLVM 242118Z 2421/2518 26022G30KT P6SM FEW110
     FM250200 28012KT P6SM SKC=



000
FTUS45 KBYZ 242118 AAA
TAFLVM
TAF AMD
KLVM 242118Z 2421/2518 26022G30KT P6SM FEW110
     FM250200 28012KT P6SM SKC=



000
FTUS45 KBYZ 242116 AAB
TAFBIL
TAF AMD
KBIL 242116Z 2421/2518 25021G34KT P6SM SCT100
     FM242200 33024G34KT P6SM VCTS SCT120CB
     FM250130 34013KT P6SM FEW200
     FM250800 26010KT P6SM SKC=



000
FTUS45 KBYZ 242116 AAB
TAFBIL
TAF AMD
KBIL 242116Z 2421/2518 25021G34KT P6SM SCT100
     FM242200 33024G34KT P6SM VCTS SCT120CB
     FM250130 34013KT P6SM FEW200
     FM250800 26010KT P6SM SKC=



000
FTUS45 KBYZ 242024 AAA
TAFSHR
TAF AMD
KSHR 242024Z 2420/2518 30011G18KT P6SM VCTS SCT150CB
      TEMPO 2420/2422 VRB30G40KT -TSRA BKN120CB
     FM250000 32018G26KT P6SM FEW150
     FM250400 31007KT P6SM SKC=



000
FTUS45 KBYZ 241811 AAA
TAFBIL
TAF AMD
KBIL 241811Z 2418/2518 VRB05KT P6SM SKC
     FM241930 28015G25KT P6SM FEW150
     FM242200 33024G34KT P6SM VCTS SCT120CB
     FM250130 34013KT P6SM FEW200
     FM250800 26010KT P6SM SKC=



000
FTUS45 KBYZ 241720
TAFBIL
TAF
KBIL 241720Z 2418/2518 28015G25KT P6SM FEW150
     FM242200 33024G34KT P6SM VCTS SCT120CB
     FM250130 34013KT P6SM FEW200
     FM250800 26010KT P6SM SKC=



000
FTUS45 KBYZ 241720
TAFSHR
TAF
KSHR 241720Z 2418/2518 30011G18KT P6SM FEW150
     FM250000 32018G26KT P6SM FEW150
     FM250400 31007KT P6SM SKC=



000
FTUS45 KBYZ 241720
TAFSHR
TAF
KSHR 241720Z 2418/2518 30011G18KT P6SM FEW150
     FM250000 32018G26KT P6SM FEW150
     FM250400 31007KT P6SM SKC=



000
FTUS45 KBYZ 241720
TAFLVM
TAF
KLVM 241720Z 2418/2518 27020G30KT P6SM SKC
     FM242100 30022G32KT P6SM FEW150
     FM250200 28012KT P6SM SKC=



000
FTUS45 KBYZ 241720
TAFLVM
TAF
KLVM 241720Z 2418/2518 27020G30KT P6SM SKC
     FM242100 30022G32KT P6SM FEW150
     FM250200 28012KT P6SM SKC=



000
FTUS45 KBYZ 241720
TAFMLS
TAF
KMLS 241720Z 2418/2518 15009KT P6SM SCT120
     FM242000 27012KT P6SM VCTS SCT070CB
     FM242330 32022G34KT P6SM VCTS SCT050CB BKN150
     FM250100 35020G29KT P6SM SCT120
     FM250500 30010KT P6SM SKC=



000
FTUS45 KBYZ 241720
TAFBIL
TAF
KBIL 241720Z 2418/2518 28015G25KT P6SM FEW150
     FM242200 33024G34KT P6SM VCTS SCT120CB
     FM250130 34013KT P6SM FEW200
     FM250800 26010KT P6SM SKC=



000
FTUS45 KBYZ 241720
TAFMLS
TAF
KMLS 241720Z 2418/2518 15009KT P6SM SCT120
     FM242000 27012KT P6SM VCTS SCT070CB
     FM242330 32022G34KT P6SM VCTS SCT050CB BKN150
     FM250100 35020G29KT P6SM SCT120
     FM250500 30010KT P6SM SKC=



000
FTUS45 KBYZ 241121
TAFSHR
TAF
KSHR 241121Z 2412/2512 29009KT P6SM SCT120 BKN200
     FM241700 32011KT P6SM SCT120 BKN200
     FM242200 31012G19KT P6SM VCTS SCT120CB BKN200=



000
FTUS45 KBYZ 241121
TAFLVM
TAF
KLVM 241121Z 2412/2512 30012KT P6SM SCT200
     FM241800 30015KT P6SM VCTS SCT120CB
     FM242100 30012G22KT P6SM SCT150 BKN250=



000
FTUS45 KBYZ 241121
TAFSHR
TAF
KSHR 241121Z 2412/2512 29009KT P6SM SCT120 BKN200
     FM241700 32011KT P6SM SCT120 BKN200
     FM242200 31012G19KT P6SM VCTS SCT120CB BKN200=



000
FTUS45 KBYZ 241121
TAFBIL
TAF
KBIL 241121Z 2412/2512 22011KT P6SM SCT200
     FM241400 26015G23KT P6SM FEW150
     FM241700 31015G24KT P6SM SCT120
     FM242200 33015G24KT P6SM VCTS SCT120CB=



000
FTUS45 KBYZ 241121
TAFMLS
TAF
KMLS 241121Z 2412/2512 03010KT P6SM SCT200
     FM241400 VRB06KT P6SM SCT100
     FM241800 32011KT P6SM VCTS SCT120CB
     FM242100 33012G22KT P6SM VCTS SCT050CB BKN150
     FM250100 35020G29KT P6SM FEW050 BKN150=



000
FTUS45 KBYZ 241121
TAFBIL
TAF
KBIL 241121Z 2412/2512 22011KT P6SM SCT200
     FM241400 26015G23KT P6SM FEW150
     FM241700 31015G24KT P6SM SCT120
     FM242200 33015G24KT P6SM VCTS SCT120CB=



000
FTUS45 KBYZ 240655 AAA
TAFMLS
TAF AMD
KMLS 240655Z 2407/2506 VRB06KT P6SM SCT200
     FM241800 32011KT P6SM VCTS SCT120CB
     FM242100 33012G22KT P6SM VCTS SCT050CB BKN150
     FM250100 35020G29KT P6SM FEW050 BKN150=



000
FTUS45 KBYZ 240655 AAA
TAFMLS
TAF AMD
KMLS 240655Z 2407/2506 VRB06KT P6SM SCT200
     FM241800 32011KT P6SM VCTS SCT120CB
     FM242100 33012G22KT P6SM VCTS SCT050CB BKN150
     FM250100 35020G29KT P6SM FEW050 BKN150=



000
FTUS45 KBYZ 240523
TAFLVM
TAF
KLVM 240523Z 2406/2506 VRB06KT P6SM SCT150
     FM240800 23013KT P6SM SCT200
     FM241200 28009KT P6SM SCT200
     FM241800 28014KT P6SM VCTS SCT120CB
     FM242100 30012G22KT P6SM SCT150 BKN250=



000
FTUS45 KBYZ 240523
TAFMLS
TAF
KMLS 240523Z 2406/2506 11009G17KT P6SM SCT200
     FM240900 VRB06KT P6SM SCT200
     FM241800 32011KT P6SM VCTS SCT120CB
     FM242100 33012G22KT P6SM VCTS SCT050CB BKN150
     FM250100 35020G29KT P6SM FEW050 BKN150=



000
FTUS45 KBYZ 240523
TAFLVM
TAF
KLVM 240523Z 2406/2506 VRB06KT P6SM SCT150
     FM240800 23013KT P6SM SCT200
     FM241200 28009KT P6SM SCT200
     FM241800 28014KT P6SM VCTS SCT120CB
     FM242100 30012G22KT P6SM SCT150 BKN250=



000
FTUS45 KBYZ 240523
TAFSHR
TAF
KSHR 240523Z 2406/2506 VRB04KT P6SM SCT200
     FM241100 23011KT P6SM SCT120 BKN200
     FM241700 32011KT P6SM SCT120 BKN200
     FM242200 31012G19KT P6SM VCTS SCT120CB BKN200=



000
FTUS45 KBYZ 240523
TAFBIL
TAF
KBIL 240523Z 2406/2506 VRB06KT P6SM SCT150
     FM241100 22011KT P6SM SCT200
     FM241400 26015G23KT P6SM FEW150
     FM241700 31015G24KT P6SM SCT120
     FM242200 33015G24KT P6SM VCTS SCT120CB=



000
FTUS45 KBYZ 240256 AAA
TAFMLS
TAF AMD
KMLS 240256Z 2403/2424 08010KT P6SM SCT150
     FM240500 13017G22KT P6SM SCT200
     FM241200 18009KT P6SM SCT200
     FM241800 28011KT P6SM VCTS SCT120CB
     FM242100 30012G22KT P6SM SCT150 BKN250=



000
FTUS45 KBYZ 240256 AAA
TAFMLS
TAF AMD
KMLS 240256Z 2403/2424 08010KT P6SM SCT150
     FM240500 13017G22KT P6SM SCT200
     FM241200 18009KT P6SM SCT200
     FM241800 28011KT P6SM VCTS SCT120CB
     FM242100 30012G22KT P6SM SCT150 BKN250=



000
FTUS45 KBYZ 232327
TAFLVM
TAF
KLVM 232327Z 2400/2424 09004KT P6SM SCT120
     FM240500 23012KT P6SM FEW120
     FM241500 23015G25KT P6SM SCT120
     FM242200 28020G35KT P6SM SCT120=



000
FTUS45 KBYZ 232327
TAFBIL
TAF
KBIL 232327Z 2400/2424 10007KT P6SM SCT150
     FM240600 22011KT P6SM SCT200
     FM241200 23015G23KT P6SM FEW150
     FM242100 27023G32KT P6SM VCTS SCT120CB=



000
FTUS45 KBYZ 232327
TAFSHR
TAF
KSHR 232327Z 2400/2424 13010KT P6SM VCTS SCT120CB BKN200
     FM240400 VRB04KT P6SM SCT200
     FM241600 23011KT P6SM SCT120 BKN200
     FM242200 31012G19KT P6SM VCTS SCT120CB BKN200=



000
FTUS45 KBYZ 232327
TAFMLS
TAF
KMLS 232327Z 2400/2424 11013KT P6SM SCT120
     FM240100 13013G21KT P6SM VCTS SCT120CB BKN250
     FM240400 13017G22KT P6SM SCT200
     FM241200 18009KT P6SM SCT200
     FM241800 28011KT P6SM VCTS SCT120CB
     FM242100 30012G22KT P6SM SCT150 BKN250=



000
FTUS45 KBYZ 232327
TAFBIL
TAF
KBIL 232327Z 2400/2424 10007KT P6SM SCT150
     FM240600 22011KT P6SM SCT200
     FM241200 23015G23KT P6SM FEW150
     FM242100 27023G32KT P6SM VCTS SCT120CB=



000
FTUS45 KBYZ 232327
TAFLVM
TAF
KLVM 232327Z 2400/2424 09004KT P6SM SCT120
     FM240500 23012KT P6SM FEW120
     FM241500 23015G25KT P6SM SCT120
     FM242200 28020G35KT P6SM SCT120=



000
FTUS45 KBYZ 232327
TAFMLS
TAF
KMLS 232327Z 2400/2424 11013KT P6SM SCT120
     FM240100 13013G21KT P6SM VCTS SCT120CB BKN250
     FM240400 13017G22KT P6SM SCT200
     FM241200 18009KT P6SM SCT200
     FM241800 28011KT P6SM VCTS SCT120CB
     FM242100 30012G22KT P6SM SCT150 BKN250=



000
FTUS45 KBYZ 232327
TAFSHR
TAF
KSHR 232327Z 2400/2424 13010KT P6SM VCTS SCT120CB BKN200
     FM240400 VRB04KT P6SM SCT200
     FM241600 23011KT P6SM SCT120 BKN200
     FM242200 31012G19KT P6SM VCTS SCT120CB BKN200=



000
FTUS45 KBYZ 232226 AAA
TAFSHR
TAF AMD
KSHR 232226Z 2322/2418 13009G15KT P6SM VCTS FEW120CB
     FM240300 VRB04KT P6SM SCT200
     FM241500 28011KT P6SM BKN200=



000
FTUS45 KBYZ 232226 AAA
TAFSHR
TAF AMD
KSHR 232226Z 2322/2418 13009G15KT P6SM VCTS FEW120CB
     FM240300 VRB04KT P6SM SCT200
     FM241500 28011KT P6SM BKN200=



000
FTUS45 KBYZ 232225 AAA
TAFLVM
TAF AMD
KLVM 232225Z 2322/2418 VRB06KT P6SM SCT120
     FM240500 26012KT P6SM FEW100=



000
FTUS45 KBYZ 232225 AAA
TAFLVM
TAF AMD
KLVM 232225Z 2322/2418 VRB06KT P6SM SCT120
     FM240500 26012KT P6SM FEW100=



000
FTUS45 KBYZ 231739
TAFSHR
TAF
KSHR 231739Z 2318/2418 13009G15KT P6SM FEW120
     FM240300 VRB04KT P6SM SCT200
     FM241500 28011KT P6SM BKN200=



000
FTUS45 KBYZ 231739
TAFMLS
TAF
KMLS 231739Z 2318/2418 14010G17KT P6SM SCT120
     FM240100 13013G21KT P6SM VCTS SCT080CB BKN250
     FM240600 13009KT P6SM FEW150
     FM241700 28010KT P6SM SCT150=



000
FTUS45 KBYZ 231739
TAFLVM
TAF
KLVM 231739Z 2318/2418 19010G17KT P6SM FEW100
     FM232200 24017G24KT P6SM SCT100
     FM240500 26012KT P6SM FEW100=



000
FTUS45 KBYZ 231739
TAFBIL
TAF
KBIL 231739Z 2318/2418 16008KT P6SM FEW150
     FM240600 24011KT P6SM SCT200=



000
FTUS45 KBYZ 231739
TAFMLS
TAF
KMLS 231739Z 2318/2418 14010G17KT P6SM SCT120
     FM240100 13013G21KT P6SM VCTS SCT080CB BKN250
     FM240600 13009KT P6SM FEW150
     FM241700 28010KT P6SM SCT150=



000
FTUS45 KBYZ 231739
TAFSHR
TAF
KSHR 231739Z 2318/2418 13009G15KT P6SM FEW120
     FM240300 VRB04KT P6SM SCT200
     FM241500 28011KT P6SM BKN200=



000
FTUS45 KBYZ 231739
TAFBIL
TAF
KBIL 231739Z 2318/2418 16008KT P6SM FEW150
     FM240600 24011KT P6SM SCT200=



000
FTUS45 KBYZ 231739
TAFLVM
TAF
KLVM 231739Z 2318/2418 19010G17KT P6SM FEW100
     FM232200 24017G24KT P6SM SCT100
     FM240500 26012KT P6SM FEW100=



000
FTUS45 KBYZ 231120
TAFSHR
TAF
KSHR 231120Z 2312/2412 14012KT P6SM SKC
     FM232100 14008G15KT P6SM FEW100
     FM240400 23011KT P6SM BKN250=



000
FTUS45 KBYZ 231120
TAFMLS
TAF
KMLS 231120Z 2312/2412 VRB06KT P6SM FEW100
     FM231800 20016G22KT P6SM FEW100
     FM240000 13013KT P6SM VCTS SCT080CB BKN250
     FM240500 24012KT P6SM SKC=



000
FTUS45 KBYZ 231120
TAFBIL
TAF
KBIL 231120Z 2312/2412 VRB06KT P6SM FEW110 SCT140
     FM232100 10007KT P6SM FEW250
     FM240400 24009KT P6SM BKN250=



000
FTUS45 KBYZ 231120
TAFLVM
TAF
KLVM 231120Z 2312/2412 VRB06KT P6SM SCT100
     FM232000 17010G17KT P6SM SCT100
     FM232300 24017G24KT P6SM FEW100
     FM240500 24012KT P6SM FEW100=



000
FTUS45 KBYZ 231120
TAFMLS
TAF
KMLS 231120Z 2312/2412 VRB06KT P6SM FEW100
     FM231800 20016G22KT P6SM FEW100
     FM240000 13013KT P6SM VCTS SCT080CB BKN250
     FM240500 24012KT P6SM SKC=



000
FTUS45 KBYZ 231120
TAFLVM
TAF
KLVM 231120Z 2312/2412 VRB06KT P6SM SCT100
     FM232000 17010G17KT P6SM SCT100
     FM232300 24017G24KT P6SM FEW100
     FM240500 24012KT P6SM FEW100=



000
FTUS45 KBYZ 231120
TAFSHR
TAF
KSHR 231120Z 2312/2412 14012KT P6SM SKC
     FM232100 14008G15KT P6SM FEW100
     FM240400 23011KT P6SM BKN250=



000
FTUS45 KBYZ 231120
TAFBIL
TAF
KBIL 231120Z 2312/2412 VRB06KT P6SM FEW110 SCT140
     FM232100 10007KT P6SM FEW250
     FM240400 24009KT P6SM BKN250=



000
FTUS45 KBYZ 230528
TAFSHR
TAF
KSHR 230528Z 2306/2406 VRB06KT P6SM SKC
     FM232000 13008KT P6SM FEW100
     FM240100 VRB06KT P6SM BKN250=



000
FTUS45 KBYZ 230528
TAFMLS
TAF
KMLS 230528Z 2306/2406 10007KT P6SM FEW100
     FM231800 20016G22KT P6SM FEW100
     FM240500 24012KT P6SM SKC=



000
FTUS45 KBYZ 230528
TAFBIL
TAF
KBIL 230528Z 2306/2406 18007KT P6SM FEW110 SCT140
     FM231200 14006KT P6SM FEW250=



000
FTUS45 KBYZ 230528
TAFBIL
TAF
KBIL 230528Z 2306/2406 18007KT P6SM FEW110 SCT140
     FM231200 14006KT P6SM FEW250=



000
FTUS45 KBYZ 230528
TAFMLS
TAF
KMLS 230528Z 2306/2406 10007KT P6SM FEW100
     FM231800 20016G22KT P6SM FEW100
     FM240500 24012KT P6SM SKC=



000
FTUS45 KBYZ 230528
TAFSHR
TAF
KSHR 230528Z 2306/2406 VRB06KT P6SM SKC
     FM232000 13008KT P6SM FEW100
     FM240100 VRB06KT P6SM BKN250=



000
FTUS45 KBYZ 230528
TAFLVM
TAF
KLVM 230528Z 2306/2406 11017G24KT P6SM FEW120 SCT200
     FM230800 11006KT P6SM SCT100
     FM232300 18017G24KT P6SM FEW100=



000
FTUS45 KBYZ 230528
TAFLVM
TAF
KLVM 230528Z 2306/2406 11017G24KT P6SM FEW120 SCT200
     FM230800 11006KT P6SM SCT100
     FM232300 18017G24KT P6SM FEW100=



000
FTUS45 KBYZ 230206 AAA
TAFLVM
TAF AMD
KLVM 230206Z 2302/2324 23007KT P6SM FEW120 SCT200
     FM230600 11006KT P6SM SCT100
     FM230900 08005KT P6SM FEW100=



000
FTUS45 KBYZ 230206 AAA
TAFLVM
TAF AMD
KLVM 230206Z 2302/2324 23007KT P6SM FEW120 SCT200
     FM230600 11006KT P6SM SCT100
     FM230900 08005KT P6SM FEW100=



000
FTUS45 KBYZ 230205 AAB
TAFBIL
TAF AMD
KBIL 230205Z 2302/2324 06010KT P6SM FEW060 SCT110 BKN140
     FM230600 08005KT P6SM FEW100
     FM231200 14006KT P6SM FEW250=



000
FTUS45 KBYZ 230205 AAB
TAFBIL
TAF AMD
KBIL 230205Z 2302/2324 06010KT P6SM FEW060 SCT110 BKN140
     FM230600 08005KT P6SM FEW100
     FM231200 14006KT P6SM FEW250=



000
FTUS45 KBYZ 230027 AAA
TAFBIL
TAF AMD
KBIL 230027Z 2300/2324 07009KT P6SM TS BKN080CB BKN120
     FM230045 26040G50KT 3SM TSRAGS BKN025CB OVC050
     FM230145 09011KT P6SM VCTS BKN080CB
     FM230400 05007KT P6SM BKN100
     FM230600 08005KT P6SM FEW100
     FM231200 14006KT P6SM SKC
     FM231800 15008KT P6SM FEW100=



000
FTUS45 KBYZ 230027 AAA
TAFBIL
TAF AMD
KBIL 230027Z 2300/2324 07009KT P6SM TS BKN080CB BKN120
     FM230045 26040G50KT 3SM TSRAGS BKN025CB OVC050
     FM230145 09011KT P6SM VCTS BKN080CB
     FM230400 05007KT P6SM BKN100
     FM230600 08005KT P6SM FEW100
     FM231200 14006KT P6SM SKC
     FM231800 15008KT P6SM FEW100=



000
FTUS45 KBYZ 222334
TAFMLS
TAF
KMLS 222334Z 2300/2324 03023G31KT P6SM SKC
     FM230100 07010KT P6SM VCTS SCT080CB BKN150
     FM230600 08010KT P6SM SCT100 BKN150
     FM231200 11010KT P6SM SCT100
     FM231800 12011KT P6SM FEW100=



000
FTUS45 KBYZ 222334
TAFSHR
TAF
KSHR 222334Z 2300/2324 VRB04KT P6SM FEW080
     FM230600 VRB04KT P6SM SKC
     FM231800 VRB04KT P6SM FEW100=



000
FTUS45 KBYZ 222334
TAFBIL
TAF
KBIL 222334Z 2300/2324 09009KT P6SM VCTS FEW080CB BKN120
     FM230400 05007KT P6SM BKN100
     FM230600 08005KT P6SM FEW100
     FM231200 14006KT P6SM SKC
     FM231800 15008KT P6SM FEW100=



000
FTUS45 KBYZ 222334
TAFLVM
TAF
KLVM 222334Z 2300/2324 23016G30KT P6SM VCTS SCT080CB BKN100
     FM230300 11010KT P6SM SCT100 BKN150
     FM230600 11006KT P6SM SCT100
     FM230900 08005KT P6SM FEW100=



000
FTUS45 KBYZ 222334
TAFBIL
TAF
KBIL 222334Z 2300/2324 09009KT P6SM VCTS FEW080CB BKN120
     FM230400 05007KT P6SM BKN100
     FM230600 08005KT P6SM FEW100
     FM231200 14006KT P6SM SKC
     FM231800 15008KT P6SM FEW100=



000
FTUS45 KBYZ 222334
TAFLVM
TAF
KLVM 222334Z 2300/2324 23016G30KT P6SM VCTS SCT080CB BKN100
     FM230300 11010KT P6SM SCT100 BKN150
     FM230600 11006KT P6SM SCT100
     FM230900 08005KT P6SM FEW100=



000
FTUS45 KBYZ 222334
TAFSHR
TAF
KSHR 222334Z 2300/2324 VRB04KT P6SM FEW080
     FM230600 VRB04KT P6SM SKC
     FM231800 VRB04KT P6SM FEW100=



000
FTUS45 KBYZ 222334
TAFMLS
TAF
KMLS 222334Z 2300/2324 03023G31KT P6SM SKC
     FM230100 07010KT P6SM VCTS SCT080CB BKN150
     FM230600 08010KT P6SM SCT100 BKN150
     FM231200 11010KT P6SM SCT100
     FM231800 12011KT P6SM FEW100=



000
FTUS45 KBYZ 222250 AAA
TAFLVM
TAF AMD
KLVM 222250Z 2223/2318 21015G28KT P6SM VCTS BKN100CB BKN120
     FM230500 10008KT P6SM SCT250=



000
FTUS45 KBYZ 222105 AAA
TAFMLS
TAF AMD
KMLS 222105Z 2221/2318 08007KT P6SM VCTS BKN100CB
     FM230000 08009KT P6SM VCTS SCT070CB BKN120
     FM230600 11010KT P6SM SCT250=



000
FTUS45 KBYZ 221738
TAFSHR
TAF
KSHR 221738Z 2218/2318 VRB05KT P6SM FEW120=



000
FTUS45 KBYZ 221738
TAFLVM
TAF
KLVM 221738Z 2218/2318 VRB06KT P6SM SCT100
     FM222100 25011G18KT P6SM VCTS SCT090CB SCT120
     FM230500 10008KT P6SM SCT250=



000
FTUS45 KBYZ 221738
TAFBIL
TAF
KBIL 221738Z 2218/2318 06005KT P6SM FEW150
     FM230000 07009KT P6SM VCTS SCT080CB BKN150
     FM230600 VRB05KT P6SM SCT150=



000
FTUS45 KBYZ 221738
TAFMLS
TAF
KMLS 221738Z 2218/2318 08006KT P6SM SCT100
     FM230000 08009KT P6SM VCTS SCT070CB BKN120
     FM230600 11010KT P6SM SCT250=



000
FTUS45 KBYZ 221738
TAFLVM
TAF
KLVM 221738Z 2218/2318 VRB06KT P6SM SCT100
     FM222100 25011G18KT P6SM VCTS SCT090CB SCT120
     FM230500 10008KT P6SM SCT250=



000
FTUS45 KBYZ 221738
TAFBIL
TAF
KBIL 221738Z 2218/2318 06005KT P6SM FEW150
     FM230000 07009KT P6SM VCTS SCT080CB BKN150
     FM230600 VRB05KT P6SM SCT150=



000
FTUS45 KBYZ 221738
TAFMLS
TAF
KMLS 221738Z 2218/2318 08006KT P6SM SCT100
     FM230000 08009KT P6SM VCTS SCT070CB BKN120
     FM230600 11010KT P6SM SCT250=



000
FTUS45 KBYZ 221738
TAFSHR
TAF
KSHR 221738Z 2218/2318 VRB05KT P6SM FEW120=



000
FTUS45 KBYZ 221431 AAA
TAFBIL
TAF AMD
KBIL 221431Z 2215/2312 VRB05KT P6SM SCT090 SCT250
     FM221900 VRB05KT P6SM VCTS SCT080CB BKN150
     FM222300 07009KT P6SM SCT150=



000
FTUS45 KBYZ 221431 AAA
TAFBIL
TAF AMD
KBIL 221431Z 2215/2312 VRB05KT P6SM SCT090 SCT250
     FM221900 VRB05KT P6SM VCTS SCT080CB BKN150
     FM222300 07009KT P6SM SCT150=



000
FTUS45 KBYZ 221429 AAA
TAFLVM
TAF AMD
KLVM 221429Z 2214/2312 VRB06KT P6SM SCT100
     FM221900 25011G18KT P6SM VCTS SCT090CB SCT120
     FM230600 10008KT P6SM BKN250=



000
FTUS45 KBYZ 221429 AAA
TAFLVM
TAF AMD
KLVM 221429Z 2214/2312 VRB06KT P6SM SCT100
     FM221900 25011G18KT P6SM VCTS SCT090CB SCT120
     FM230600 10008KT P6SM BKN250=



    US Dept of Commerce
    National Oceanic and Atmospheric Administration
    National Weather Service
    1325 East West Highway
    Silver Spring, MD 20910
    Page Author: NWS Internet Services Team
Disclaimer
Information Quality
Credits
Glossary
Privacy Policy
Freedom of Information Act (FOIA)
About Us
Career Opportunities